createdAt,value
2019-01-11T00:00:01.046Z,-1.20
2019-01-11T00:02:31.500Z,-1.20
2019-01-11T00:05:01.744Z,-1.20
2019-01-11T00:07:32.327Z,-1.20
2019-01-11T00:10:02.787Z,-1.20
2019-01-11T00:12:32.635Z,-1.20
2019-01-11T00:15:03.467Z,-1.30
2019-01-11T00:17:34.062Z,-1.30
2019-01-11T00:20:04.308Z,-1.30
2019-01-11T00:22:34.998Z,-1.30
2019-01-11T00:25:06.023Z,-1.30
2019-01-11T00:27:36.260Z,-1.30
2019-01-11T00:30:08.308Z,-1.30
2019-01-11T00:32:38.901Z,-1.30
2019-01-11T00:35:09.577Z,-1.30
2019-01-11T00:37:58.747Z,-1.30
2019-01-11T00:40:29.972Z,-1.20
2019-01-11T00:43:00.152Z,-1.30
2019-01-11T00:45:30.246Z,-1.30
2019-01-11T00:48:00.472Z,-1.40
2019-01-11T00:50:30.765Z,-1.30
2019-01-11T00:53:01.287Z,-1.30
2019-01-11T00:55:31.863Z,-1.40
2019-01-11T00:58:01.674Z,-1.40
2019-01-11T01:00:32.384Z,-1.40
2019-01-11T01:03:02.222Z,-1.40
2019-01-11T01:05:32.702Z,-1.30
2019-01-11T01:08:03.097Z,-1.30
2019-01-11T01:10:33.577Z,-1.30
2019-01-11T01:13:04.195Z,-1.30
2019-01-11T01:15:34.579Z,-1.20
2019-01-11T01:18:05.226Z,-1.20
2019-01-11T01:20:35.692Z,-1.20
2019-01-11T01:23:06.478Z,-1.20
2019-01-11T01:25:36.710Z,-1.20
2019-01-11T01:28:06.930Z,-1.10
2019-01-11T01:30:37.735Z,-1.10
2019-01-11T01:33:08.231Z,-1.10
2019-01-11T01:35:38.734Z,-1.10
2019-01-11T01:38:09.369Z,-1.10
2019-01-11T01:40:39.559Z,-1.20
2019-01-11T01:43:09.509Z,-1.20
2019-01-11T01:45:40.066Z,-1.20
2019-01-11T01:48:10.502Z,-1.30
2019-01-11T01:50:41.213Z,-1.30
2019-01-11T01:53:11.858Z,-1.30
2019-01-11T01:55:42.204Z,-1.30
2019-01-11T01:58:12.422Z,-1.30
2019-01-11T02:00:42.870Z,-1.30
2019-01-11T02:03:13.250Z,-1.30
2019-01-11T02:05:43.728Z,-1.30
2019-01-11T02:08:14.043Z,-1.30
2019-01-11T02:10:44.726Z,-1.30
2019-01-11T02:13:15.228Z,-1.30
2019-01-11T02:15:45.821Z,-1.30
2019-01-11T02:18:16.346Z,-1.30
2019-01-11T02:20:46.882Z,-1.30
2019-01-11T02:23:17.348Z,-1.30
2019-01-11T02:25:47.632Z,-1.30
2019-01-11T02:28:17.986Z,-1.30
2019-01-11T02:30:48.596Z,-1.30
2019-01-11T02:33:24.823Z,-1.30
2019-01-11T02:35:51.514Z,-1.30
2019-01-11T02:38:21.858Z,-1.40
2019-01-11T02:40:52.259Z,-1.30
2019-01-11T02:43:22.817Z,-1.30
2019-01-11T02:45:53.058Z,-1.30
2019-01-11T02:48:42.271Z,-1.20
2019-01-11T02:51:12.963Z,-1.20
2019-01-11T02:53:43.334Z,-1.20
2019-01-11T02:56:13.502Z,-1.20
2019-01-11T02:58:43.455Z,-1.20
2019-01-11T03:01:13.808Z,-1.30
2019-01-11T03:03:43.998Z,-1.30
2019-01-11T03:06:14.370Z,-1.30
2019-01-11T03:08:44.882Z,-1.30
2019-01-11T03:11:15.064Z,-1.30
2019-01-11T03:13:45.594Z,-1.30
2019-01-11T03:16:15.750Z,-1.30
2019-01-11T03:19:05.029Z,-1.30
2019-01-11T03:21:35.567Z,-1.30
2019-01-11T03:24:05.781Z,-1.30
2019-01-11T03:26:35.930Z,-1.30
2019-01-11T03:29:06.529Z,-1.30
2019-01-11T03:31:37.163Z,-1.40
2019-01-11T03:34:07.340Z,-1.30
2019-01-11T03:36:37.996Z,-1.40
2019-01-11T03:39:10.414Z,-1.30
2019-01-11T03:42:02.119Z,-1.30
2019-01-11T03:44:32.765Z,-1.40
2019-01-11T03:47:03.016Z,-1.30
2019-01-11T03:49:33.677Z,-1.40
2019-01-11T03:52:03.952Z,-1.40
2019-01-11T03:54:34.212Z,-1.40
2019-01-11T03:57:04.792Z,-1.40
2019-01-11T03:59:35.340Z,-1.50
2019-01-11T04:02:05.511Z,-1.50
2019-01-11T04:04:35.696Z,-1.50
2019-01-11T04:07:25.041Z,-1.50
2019-01-11T04:09:55.202Z,-1.50
2019-01-11T04:12:25.686Z,-1.50
2019-01-11T04:14:55.351Z,-1.50
2019-01-11T04:17:25.582Z,-1.40
2019-01-11T04:20:01.949Z,-1.40
2019-01-11T04:22:30.083Z,-1.40
2019-01-11T04:25:20.964Z,-1.40
2019-01-11T04:27:52.297Z,-1.40
2019-01-11T04:30:23.447Z,-1.40
2019-01-11T04:32:54.005Z,-1.40
2019-01-11T04:35:24.478Z,-1.30
2019-01-11T04:37:55.007Z,-1.40
2019-01-11T04:40:25.019Z,-1.30
2019-01-11T04:42:55.137Z,-1.40
2019-01-11T04:45:25.567Z,-1.30
2019-01-11T04:47:56.161Z,-1.30
2019-01-11T04:50:26.707Z,-1.30
2019-01-11T04:52:57.271Z,-1.30
2019-01-11T04:55:27.774Z,-1.30
2019-01-11T04:57:58.215Z,-1.30
2019-01-11T05:00:28.104Z,-1.30
2019-01-11T05:02:58.400Z,-1.30
2019-01-11T05:05:28.600Z,-1.30
2019-01-11T05:07:58.896Z,-1.40
2019-01-11T05:10:29.127Z,-1.30
2019-01-11T05:13:04.395Z,-1.40
2019-01-11T05:15:34.354Z,-1.30
2019-01-11T05:18:23.311Z,-1.40
2019-01-11T05:20:53.759Z,-1.40
2019-01-11T05:23:24.273Z,-1.40
2019-01-11T05:25:54.755Z,-1.40
2019-01-11T05:28:25.055Z,-1.40
2019-01-11T05:31:14.296Z,-1.40
2019-01-11T05:33:44.516Z,-1.50
2019-01-11T05:36:14.740Z,-1.50
2019-01-11T05:38:45.053Z,-1.50
2019-01-11T05:41:15.632Z,-1.50
2019-01-11T05:43:46.246Z,-1.50
2019-01-11T05:46:15.762Z,-1.50
2019-01-11T05:48:46.240Z,-1.40
2019-01-11T05:51:16.617Z,-1.40
2019-01-11T05:53:47.192Z,-1.40
2019-01-11T05:56:19.350Z,-1.40
2019-01-11T05:58:55.470Z,-1.50
2019-01-11T06:01:26.095Z,-1.50
2019-01-11T06:03:56.874Z,-1.40
2019-01-11T06:07:16.842Z,-1.40
2019-01-11T06:09:47.382Z,-1.40
2019-01-11T06:12:17.675Z,-1.40
2019-01-11T06:14:48.209Z,-1.40
2019-01-11T06:17:18.410Z,-1.40
2019-01-11T06:19:48.664Z,-1.50
2019-01-11T06:22:19.034Z,-1.50
2019-01-11T06:24:49.666Z,-1.50
2019-01-11T06:27:20.324Z,-1.40
2019-01-11T06:29:50.548Z,-1.40
2019-01-11T06:32:20.444Z,-1.40
2019-01-11T06:34:51.119Z,-1.40
2019-01-11T06:37:21.267Z,-1.40
2019-01-11T06:39:51.433Z,-1.40
2019-01-11T06:42:27.918Z,-1.40
2019-01-11T06:44:59.360Z,-1.40
2019-01-11T06:47:30.214Z,-1.40
2019-01-11T06:50:00.804Z,-1.40
2019-01-11T06:52:31.398Z,-1.40
2019-01-11T06:55:01.914Z,-1.40
2019-01-11T06:57:31.798Z,-1.40
2019-01-11T07:00:01.756Z,-1.50
2019-01-11T07:02:31.971Z,-1.50
2019-01-11T07:05:02.445Z,-1.50
2019-01-11T07:07:32.773Z,-1.50
2019-01-11T07:10:03.378Z,-1.50
2019-01-11T07:12:33.938Z,-1.50
2019-01-11T07:15:10.473Z,-1.60
2019-01-11T07:17:41.040Z,-1.50
2019-01-11T07:20:12.131Z,-1.50
2019-01-11T07:22:42.682Z,-1.50
2019-01-11T07:25:15.819Z,-1.50
2019-01-11T07:28:04.304Z,-1.60
2019-01-11T07:30:45.788Z,-1.60
2019-01-11T07:33:16.978Z,-1.50
2019-01-11T07:35:51.795Z,-1.50
2019-01-11T07:38:22.079Z,-1.50
2019-01-11T07:40:52.539Z,-1.40
2019-01-11T07:43:23.032Z,-1.40
2019-01-11T07:45:53.223Z,-1.40
2019-01-11T07:48:23.500Z,-1.40
2019-01-11T07:50:54.089Z,-1.40
2019-01-11T07:53:24.627Z,-1.40
2019-01-11T07:55:54.992Z,-1.40
2019-01-11T07:58:25.371Z,-1.30
2019-01-11T08:00:55.887Z,-1.30
2019-01-11T08:03:26.383Z,-1.30
2019-01-11T08:06:05.040Z,-1.30
2019-01-11T08:08:35.427Z,-1.30
2019-01-11T08:11:05.591Z,-1.30
2019-01-11T08:13:35.779Z,-1.30
2019-01-11T08:16:06.101Z,-1.30
2019-01-11T08:18:36.328Z,-1.30
2019-01-11T08:21:06.586Z,-1.20
2019-01-11T08:23:36.729Z,-1.30
2019-01-11T08:26:06.981Z,-1.30
2019-01-11T08:28:37.367Z,-1.40
2019-01-11T08:31:07.534Z,-1.40
2019-01-11T08:33:37.781Z,-1.50
2019-01-11T08:36:08.005Z,-1.50
2019-01-11T08:38:38.196Z,-1.50
2019-01-11T08:41:08.810Z,-1.50
2019-01-11T08:43:39.464Z,-1.50
2019-01-11T08:46:28.264Z,-1.50
2019-01-11T08:48:58.782Z,-1.40
2019-01-11T08:51:29.250Z,-1.40
2019-01-11T08:53:59.775Z,-1.40
2019-01-11T08:56:30.374Z,-1.40
2019-01-11T08:59:04.329Z,-1.40
2019-01-11T09:01:34.926Z,-1.40
2019-01-11T09:04:23.765Z,-1.30
2019-01-11T09:06:53.723Z,-1.30
2019-01-11T09:09:23.282Z,-1.20
2019-01-11T09:11:53.795Z,-1.20
2019-01-11T09:14:45.331Z,-1.20
2019-01-11T09:17:16.936Z,-1.10
2019-01-11T09:19:47.374Z,-1.20
2019-01-11T09:22:17.577Z,-1.20
2019-01-11T09:24:47.875Z,-1.10
2019-01-11T09:27:18.540Z,-1.20
2019-01-11T09:29:49.299Z,-1.10
2019-01-11T09:32:19.871Z,-1.10
2019-01-11T09:34:50.362Z,-1.00
2019-01-11T09:37:20.614Z,-1.00
2019-01-11T09:39:50.983Z,-1.00
2019-01-11T09:42:21.508Z,-1.00
2019-01-11T09:44:51.969Z,-0.90
2019-01-11T09:47:22.635Z,-0.90
2019-01-11T09:49:52.901Z,-0.90
2019-01-11T09:52:22.695Z,-0.90
2019-01-11T09:54:52.939Z,-0.80
2019-01-11T09:57:23.101Z,-0.80
2019-01-11T09:59:53.621Z,-0.80
2019-01-11T10:02:37.641Z,-0.80
2019-01-11T10:05:10.091Z,-0.80
2019-01-11T10:07:40.322Z,-0.80
2019-01-11T10:10:15.550Z,-0.80
2019-01-11T10:12:46.295Z,-0.80
2019-01-11T10:15:16.672Z,-0.80
2019-01-11T10:18:05.674Z,-0.70
2019-01-11T10:20:36.363Z,-0.80
2019-01-11T10:23:06.872Z,-0.70
2019-01-11T10:25:37.199Z,-0.70
2019-01-11T10:28:07.743Z,-0.60
2019-01-11T10:30:37.590Z,-0.70
2019-01-11T10:33:07.959Z,-0.70
2019-01-11T10:35:38.473Z,-0.60
2019-01-11T10:38:08.873Z,-0.60
2019-01-11T10:40:39.447Z,-0.60
2019-01-11T10:43:09.657Z,-0.60
2019-01-11T10:45:39.951Z,-0.60
2019-01-11T10:48:10.351Z,-0.60
2019-01-11T10:50:40.888Z,-0.60
2019-01-11T10:53:12.458Z,-0.60
2019-01-11T10:55:42.975Z,-0.50
2019-01-11T10:58:12.936Z,-0.40
2019-01-11T11:00:43.483Z,-0.40
2019-01-11T11:03:13.703Z,-0.40
2019-01-11T11:05:44.014Z,-0.40
2019-01-11T11:08:14.010Z,-0.40
2019-01-11T11:10:44.690Z,-0.40
2019-01-11T11:13:14.922Z,-0.40
2019-01-11T11:15:48.049Z,-0.40
2019-01-11T11:18:18.330Z,-0.40
2019-01-11T11:20:48.526Z,-0.30
2019-01-11T11:23:19.106Z,-0.30
2019-01-11T11:25:49.424Z,-0.30
2019-01-11T11:28:22.511Z,-0.30
2019-01-11T11:30:53.034Z,-0.30
2019-01-11T11:33:23.606Z,-0.20
2019-01-11T11:35:54.030Z,-0.20
2019-01-11T11:38:24.032Z,-0.20
2019-01-11T11:40:54.663Z,-0.20
2019-01-11T11:43:25.148Z,-0.20
2019-01-11T11:45:55.427Z,-0.20
2019-01-11T11:48:25.996Z,-0.20
2019-01-11T11:50:56.701Z,-0.30
2019-01-11T11:53:26.804Z,-0.30
2019-01-11T11:55:57.071Z,-0.30
2019-01-11T11:58:27.358Z,-0.30
2019-01-11T12:00:57.722Z,-0.30
2019-01-11T12:03:27.895Z,-0.30
2019-01-11T12:05:58.439Z,-0.30
2019-01-11T12:08:28.763Z,-0.30
2019-01-11T12:10:59.349Z,-0.30
2019-01-11T12:13:29.728Z,-0.20
2019-01-11T12:16:00.375Z,-0.20
2019-01-11T12:18:30.933Z,-0.30
2019-01-11T12:21:01.419Z,-0.30
2019-01-11T12:23:32.074Z,-0.30
2019-01-11T12:26:02.294Z,-0.30
2019-01-11T12:28:32.861Z,-0.30
2019-01-11T12:31:03.142Z,-0.30
2019-01-11T12:33:33.726Z,-0.30
2019-01-11T12:36:03.839Z,-0.40
2019-01-11T12:38:53.157Z,-0.40
2019-01-11T12:41:23.736Z,-0.30
2019-01-11T12:43:54.357Z,-0.30
2019-01-11T12:46:25.039Z,-0.40
2019-01-11T12:48:55.251Z,-0.40
2019-01-11T12:51:25.887Z,-0.50
2019-01-11T12:53:56.169Z,-0.40
2019-01-11T12:56:26.893Z,-0.40
2019-01-11T12:58:57.470Z,-0.40
2019-01-11T13:01:27.539Z,-0.40
2019-01-11T13:03:58.126Z,-0.50
2019-01-11T13:06:29.557Z,-0.50
2019-01-11T13:08:59.849Z,-0.50
2019-01-11T13:11:30.071Z,-0.50
2019-01-11T13:14:00.697Z,-0.50
2019-01-11T13:16:31.294Z,-0.40
2019-01-11T13:19:01.872Z,-0.40
2019-01-11T13:21:32.050Z,-0.40
2019-01-11T13:24:02.264Z,-0.50
2019-01-11T13:26:32.534Z,-0.40
2019-01-11T13:29:02.722Z,-0.40
2019-01-11T13:31:33.026Z,-0.40
2019-01-11T13:34:03.331Z,-0.40
2019-01-11T13:36:33.958Z,-0.40
2019-01-11T13:39:22.580Z,-0.40
2019-01-11T13:41:53.151Z,-0.40
2019-01-11T13:44:23.359Z,-0.40
2019-01-11T13:46:54.151Z,-0.40
2019-01-11T13:49:24.768Z,-0.40
2019-01-11T13:51:55.371Z,-0.40
2019-01-11T13:54:26.097Z,-0.30
2019-01-11T13:56:56.765Z,-0.30
2019-01-11T13:59:27.118Z,-0.30
2019-01-11T14:01:57.643Z,-0.30
2019-01-11T14:04:27.937Z,-0.30
2019-01-11T14:06:57.829Z,-0.40
2019-01-11T14:09:28.415Z,-0.40
2019-01-11T14:11:59.041Z,-0.40
2019-01-11T14:14:29.577Z,-0.50
2019-01-11T14:17:00.123Z,-0.50
2019-01-11T14:19:30.803Z,-0.50
2019-01-11T14:22:01.299Z,-0.60
2019-01-11T14:24:31.820Z,-0.60
2019-01-11T14:27:02.205Z,-0.60
2019-01-11T14:29:32.423Z,-0.70
2019-01-11T14:32:03.181Z,-0.70
2019-01-11T14:34:33.805Z,-0.70
2019-01-11T14:37:04.283Z,-0.70
2019-01-11T14:39:34.937Z,-0.70
2019-01-11T14:42:05.292Z,-0.70
2019-01-11T14:44:35.770Z,-0.60
2019-01-11T14:47:05.431Z,-0.60
2019-01-11T14:49:36.145Z,-0.70
2019-01-11T14:52:06.839Z,-0.60
2019-01-11T14:54:37.489Z,-0.60
2019-01-11T14:57:08.171Z,-0.60
2019-01-11T14:59:38.747Z,-0.60
2019-01-11T15:02:08.305Z,-0.60
2019-01-11T15:04:38.787Z,-0.60
2019-01-11T15:07:09.291Z,-0.60
2019-01-11T15:09:39.773Z,-0.60
2019-01-11T15:12:10.345Z,-0.60
2019-01-11T15:14:40.659Z,-0.60
2019-01-11T15:17:11.133Z,-0.60
2019-01-11T15:19:41.574Z,-0.60
2019-01-11T15:22:11.582Z,-0.50
2019-01-11T15:24:42.107Z,-0.50
2019-01-11T15:27:12.705Z,-0.50
2019-01-11T15:29:42.891Z,-0.50
2019-01-11T15:32:14.619Z,-0.50
2019-01-11T15:34:44.613Z,-0.50
2019-01-11T15:37:15.185Z,-0.50
2019-01-11T15:39:45.685Z,-0.50
2019-01-11T15:42:15.587Z,-0.50
2019-01-11T15:44:46.941Z,-0.60
2019-01-11T15:47:17.271Z,-0.50
2019-01-11T15:49:47.945Z,-0.60
2019-01-11T15:52:18.329Z,-0.60
2019-01-11T15:54:48.819Z,-0.60
2019-01-11T15:57:42.123Z,-0.60
2019-01-11T16:00:21.783Z,-0.60
2019-01-11T16:02:52.397Z,-0.60
2019-01-11T16:05:22.719Z,-0.60
2019-01-11T16:07:53.270Z,-0.60
2019-01-11T16:10:24.757Z,-0.60
2019-01-11T16:13:35.351Z,-0.60
2019-01-11T16:16:51.827Z,-0.60
2019-01-11T16:19:22.474Z,-0.60
2019-01-11T16:21:53.046Z,-0.60
2019-01-11T16:24:23.595Z,-0.60
2019-01-11T16:26:53.958Z,-0.60
2019-01-11T16:29:24.591Z,-0.60
2019-01-11T16:31:55.071Z,-0.70
2019-01-11T16:34:25.846Z,-0.70
2019-01-11T16:36:56.346Z,-0.70
2019-01-11T16:39:26.886Z,-0.70
2019-01-11T16:41:57.441Z,-0.70
2019-01-11T16:44:27.929Z,-0.70
2019-01-11T16:46:58.236Z,-0.70
2019-01-11T16:49:28.827Z,-0.70
2019-01-11T16:51:59.403Z,-0.70
2019-01-11T16:54:29.904Z,-0.70
2019-01-11T16:57:00.514Z,-0.70
2019-01-11T16:59:31.094Z,-0.70
2019-01-11T17:02:01.321Z,-0.60
2019-01-11T17:04:31.328Z,-0.60
2019-01-11T17:07:01.499Z,-0.60
2019-01-11T17:09:32.142Z,-0.60
2019-01-11T17:12:02.725Z,-0.60
2019-01-11T17:14:32.971Z,-0.50
2019-01-11T17:17:03.493Z,-0.50
2019-01-11T17:19:33.695Z,-0.50
2019-01-11T17:22:23.054Z,-0.50
2019-01-11T17:24:53.699Z,-0.60
2019-01-11T17:27:24.325Z,-0.60
2019-01-11T17:29:54.907Z,-0.60
2019-01-11T17:32:25.573Z,-0.60
2019-01-11T17:34:56.249Z,-0.60
2019-01-11T17:37:26.136Z,-0.60
2019-01-11T17:39:56.711Z,-0.60
2019-01-11T17:42:27.298Z,-0.70
2019-01-11T17:44:57.894Z,-0.70
2019-01-11T17:47:28.593Z,-0.60
2019-01-11T17:50:01.184Z,-0.60
2019-01-11T17:52:31.399Z,-0.60
2019-01-11T17:55:01.865Z,-0.60
2019-01-11T17:57:31.922Z,-0.60
2019-01-11T18:00:02.639Z,-0.50
2019-01-11T18:02:33.163Z,-0.50
2019-01-11T18:05:03.493Z,-0.50
2019-01-11T18:07:34.155Z,-0.50
2019-01-11T18:10:04.867Z,-0.50
2019-01-11T18:12:36.355Z,-0.50
2019-01-11T18:15:09.432Z,-0.50
2019-01-11T18:17:39.880Z,-0.40
2019-01-11T18:20:13.965Z,-0.40
2019-01-11T18:22:44.650Z,-0.40
2019-01-11T18:25:15.693Z,-0.40
2019-01-11T18:27:46.441Z,-0.40
2019-01-11T18:30:18.179Z,-0.40
2019-01-11T18:32:48.609Z,-0.40
2019-01-11T18:35:19.150Z,-0.40
2019-01-11T18:37:51.595Z,-0.40
2019-01-11T18:40:24.237Z,-0.30
2019-01-11T18:42:55.424Z,-0.30
2019-01-11T18:45:28.820Z,-0.30
2019-01-11T18:47:58.323Z,-0.40
2019-01-11T18:50:28.819Z,-0.40
2019-01-11T18:52:59.288Z,-0.40
2019-01-11T18:55:29.863Z,-0.40
2019-01-11T18:58:00.211Z,-0.30
2019-01-11T19:00:30.590Z,-0.30
2019-01-11T19:03:00.821Z,-0.20
2019-01-11T19:05:31.667Z,-0.20
2019-01-11T19:08:02.437Z,-0.20
2019-01-11T19:10:33.016Z,-0.30
2019-01-11T19:13:03.158Z,-0.20
2019-01-11T19:15:33.726Z,-0.20
2019-01-11T19:18:04.388Z,-0.20
2019-01-11T19:20:34.270Z,-0.20
2019-01-11T19:23:05.098Z,-0.20
2019-01-11T19:25:35.945Z,-0.20
2019-01-11T19:28:06.303Z,-0.10
2019-01-11T19:30:36.599Z,-0.10
2019-01-11T19:33:07.283Z,-0.10
2019-01-11T19:35:37.183Z,-0.10
2019-01-11T19:38:07.215Z,-0.10
2019-01-11T19:40:37.142Z,-0.10
2019-01-11T19:43:07.693Z,-0.10
2019-01-11T19:45:38.177Z,-0.10
2019-01-11T19:48:08.691Z,0.00
2019-01-11T19:50:39.166Z,0.10
2019-01-11T19:53:10.001Z,0.10
2019-01-11T19:55:40.381Z,0.00
2019-01-11T19:58:11.521Z,0.10
2019-01-11T20:00:42.387Z,0.10
2019-01-11T20:03:12.743Z,0.10
2019-01-11T20:05:43.322Z,0.10
2019-01-11T20:08:13.728Z,0.20
2019-01-11T20:10:44.886Z,0.10
2019-01-11T20:13:15.637Z,0.20
2019-01-11T20:15:46.272Z,0.10
2019-01-11T20:18:16.650Z,0.20
2019-01-11T20:20:47.659Z,0.20
2019-01-11T20:23:18.232Z,0.10
2019-01-11T20:25:48.481Z,0.10
2019-01-11T20:28:19.038Z,0.10
2019-01-11T20:30:49.828Z,0.20
2019-01-11T20:33:20.180Z,0.20
2019-01-11T20:35:51.009Z,0.20
2019-01-11T20:38:21.196Z,0.30
2019-01-11T20:40:51.666Z,0.30
2019-01-11T20:43:21.916Z,0.30
2019-01-11T20:45:52.569Z,0.30
2019-01-11T20:48:23.169Z,0.40
2019-01-11T20:50:53.663Z,0.30
2019-01-11T20:53:23.736Z,0.40
2019-01-11T20:55:57.980Z,0.40
2019-01-11T20:58:31.113Z,0.40
2019-01-11T21:01:06.400Z,0.40
2019-01-11T21:03:38.875Z,0.40
2019-01-11T21:06:12.816Z,0.40
2019-01-11T21:08:46.043Z,0.40
2019-01-11T21:11:20.082Z,0.40
2019-01-11T21:13:53.820Z,0.40
2019-01-11T21:16:24.649Z,0.40
2019-01-11T21:18:58.062Z,0.40
2019-01-11T21:21:29.299Z,0.40
2019-01-11T21:24:00.449Z,0.40
2019-01-11T21:26:30.705Z,0.40
2019-01-11T21:29:01.344Z,0.40
2019-01-11T21:31:31.949Z,0.40
2019-01-11T21:34:04.570Z,0.40
2019-01-11T21:36:37.509Z,0.50
2019-01-11T21:39:11.327Z,0.50
2019-01-11T21:41:41.858Z,0.50
2019-01-11T21:44:12.544Z,0.50
2019-01-11T21:46:43.059Z,0.50
2019-01-11T21:49:14.292Z,0.50
2019-01-11T21:51:51.119Z,0.60
2019-01-11T21:54:30.325Z,0.60
2019-01-11T21:57:07.738Z,0.60
2019-01-11T21:59:42.901Z,0.60
2019-01-11T22:02:13.418Z,0.60
2019-01-11T22:04:44.419Z,0.60
2019-01-11T22:07:14.463Z,0.60
2019-01-11T22:09:45.015Z,0.60
2019-01-11T22:12:20.764Z,0.70
2019-01-11T22:14:56.063Z,0.70
2019-01-11T22:17:26.684Z,0.70
2019-01-11T22:19:57.261Z,0.70
2019-01-11T22:22:27.860Z,0.80
2019-01-11T22:25:02.405Z,0.80
2019-01-11T22:27:33.240Z,0.80
2019-01-11T22:30:03.893Z,0.80
2019-01-11T22:32:34.553Z,0.80
2019-01-11T22:35:05.302Z,0.80
2019-01-11T22:37:36.180Z,0.80
2019-01-11T22:40:09.434Z,0.90
2019-01-11T22:42:39.839Z,0.90
2019-01-11T22:45:11.203Z,0.80
2019-01-11T22:47:42.010Z,0.90
2019-01-11T22:50:13.455Z,0.90
2019-01-11T22:52:44.189Z,0.90
2019-01-11T22:55:15.998Z,1.00
2019-01-11T22:57:46.518Z,1.00
2019-01-11T23:01:21.932Z,0.90
2019-01-11T23:03:56.152Z,1.00
2019-01-11T23:07:05.676Z,1.00
2019-01-11T23:09:46.768Z,0.90
2019-01-11T23:12:37.937Z,1.00
2019-01-11T23:15:19.142Z,1.00
2019-01-11T23:18:11.213Z,1.00
2019-01-11T23:20:41.423Z,1.00
2019-01-11T23:23:11.860Z,1.00
2019-01-11T23:25:42.448Z,1.00
2019-01-11T23:28:12.924Z,1.10
2019-01-11T23:30:42.861Z,1.00
2019-01-11T23:33:13.507Z,1.10
2019-01-11T23:35:43.732Z,1.10
2019-01-11T23:38:14.312Z,1.00
2019-01-11T23:40:44.604Z,1.10
2019-01-11T23:43:15.202Z,1.10
2019-01-11T23:45:45.393Z,1.10
2019-01-11T23:48:15.581Z,1.10
2019-01-11T23:50:45.812Z,1.10
2019-01-11T23:53:16.345Z,1.10
2019-01-11T23:55:46.959Z,1.10
2019-01-11T23:58:17.195Z,1.10
